Shao Shan 5 — VRKO9 — position and weather

sailwx.info

Track history (hours):
 
Tides and Currents Weather Stations Pressure Air Temp Water Temp Dewpoint Dewpoint Depression Visibility Wind Speed Wind Dir Waves Ship Positions

Shao Shan 5

Last reported at 2014-Aug-28 02:33 UTC. Time now 2014-Aug-28 03:24 UTC.
Position N 55°14' E 014°19'.

Length 225 m; draft 14.1 m.

Type: Cargo ship. MMSI: 477325700.

Date/timePositionNaut miles runAvg speedWind from/ knotsBaromVisibWave heightAir tempDewpointWater temp
2014-Aug-28 02:33N 55°14' E 014°19'1211.6
2014-Aug-28 01:33N 55°24' E 014°31'1111.2
2014-Aug-28 00:33N 55°30' E 014°47'1311.5
2014-Aug-27 23:27N 55°36' E 015°07'1011.3
2014-Aug-27 22:32N 55°39' E 015°25'1111.3
2014-Aug-27 21:33N 55°42' E 015°44'4511.2
2014-Aug-27 17:33N 55°53' E 017°01'1111.1
2014-Aug-27 16:33N 55°55' E 017°20'1111.1
2014-Aug-27 15:33N 55°58' E 017°39'  
2014-Aug-20 21:29N 56°02' E 016°41'1213.3
2014-Aug-20 20:34N 55°55' E 016°23'1513.3
2014-Aug-20 19:24N 55°47' E 015°59'1113.1
2014-Aug-20 18:33N 55°41' E 015°42'1313.3
2014-Aug-20 17:33N 55°35' E 015°22'1413.6
2014-Aug-20 16:33N 55°29' E 014°60'1313.3
2014-Aug-20 15:33N 55°23' E 014°39'1312.9
2014-Aug-20 14:33N 55°13' E 014°24'2512.6
2014-Aug-20 12:33N 55°11' E 013°41'1413.5
2014-Aug-20 11:33N 55°11' E 013°17'1413.6
2014-Aug-20 10:33N 55°15' E 012°54'1110.8
2014-Aug-20 09:33N 55°21' E 012°38'1212.0
2014-Aug-20 08:33N 55°32' E 012°42'1111.1
2014-Aug-20 07:33N 55°44' E 012°41'1312.9
2014-Aug-20 06:34N 55°56' E 012°38'1312.6
2014-Aug-20 05:33N 56°08' E 012°29'1312.8
2014-Aug-20 04:33N 56°15' E 012°10'5112.8
2014-Aug-20 00:33N 57°04' E 011°40'1313.1
2014-Aug-19 23:33N 57°16' E 011°32'1312.9
2014-Aug-19 22:33N 57°28' E 011°24'1313.0
2014-Aug-19 21:33N 57°37' E 011°06'1413.7
2014-Aug-19 20:33N 57°46' E 010°46'1212.1
2014-Aug-19 19:33N 57°51' E 010°26'12712.2
2014-Aug-19 09:11N 56°59' E 006°51'14 8.3
2014-Aug-19 07:31N 56°45' E 006°50'66 9.5
2014-Aug-19 00:33N 55°39' E 006°51'9 9.3
2014-Aug-18 23:33N 55°29' E 006°52'9 9.2
2014-Aug-18 22:33N 55°20' E 006°51'9 9.0
2014-Aug-18 21:33N 55°11' E 006°50'8 8.0
2014-Aug-18 20:33N 55°03' E 006°50'9 9.0
2014-Aug-18 19:33N 54°55' E 006°55'10 9.9
2014-Aug-18 18:33N 54°46' E 007°02'1010.3
2014-Aug-18 17:33N 54°36' E 007°10'1010.1
2014-Aug-18 16:33N 54°27' E 007°18'1010.0
2014-Aug-18 15:33N 54°18' E 007°26'10 9.7
2014-Aug-18 14:33N 54°11' E 007°36'10 9.8
2014-Aug-18 13:33N 54°06' E 007°51'10 9.9
2014-Aug-18 12:33N 54°01' E 008°05'10 9.5
2014-Aug-18 11:33N 53°60' E 008°21'1312.8
2014-Aug-18 10:34N 53°54' E 008°41'1212.4
2014-Aug-18 09:34N 53°52' E 009°02'1010.0
2014-Aug-18 08:33N 53°51' E 009°19'1212.4
2014-Aug-18 07:33N 53°41' E 009°30'1010.4
2014-Aug-18 06:34N 53°34' E 009°43'8 8.3
2014-Aug-18 05:33N 53°32' E 009°56'1 0.9
2014-Aug-18 04:31N 53°31' E 009°56'0 0.0
2014-Aug-18 03:31N 53°31' E 009°56'  
Track history (hours):
 
Tides and Currents Weather Stations Pressure Air Temp Water Temp Dewpoint Dewpoint Depression Visibility Wind Speed Wind Dir Waves Ship Positions

Shao Shan 5

Last reported at 2014-Aug-28 02:33 UTC. Time now 2014-Aug-28 03:24 UTC.
Position N 55°14' E 014°19'.

Length 225 m; draft 14.1 m.

Type: Cargo ship. MMSI: 477325700.

Date/timePositionNaut miles runAvg speedWind from/ knotsBaromVisibWave heightAir tempDewpointWater temp
2014-Aug-28 02:33N 55°14' E 014°19'1211.6
2014-Aug-28 01:33N 55°24' E 014°31'1111.2
2014-Aug-28 00:33N 55°30' E 014°47'1311.5
2014-Aug-27 23:27N 55°36' E 015°07'1011.3
2014-Aug-27 22:32N 55°39' E 015°25'1111.3
2014-Aug-27 21:33N 55°42' E 015°44'4511.2
2014-Aug-27 17:33N 55°53' E 017°01'1111.1
2014-Aug-27 16:33N 55°55' E 017°20'1111.1
2014-Aug-27 15:33N 55°58' E 017°39'  
2014-Aug-20 21:29N 56°02' E 016°41'1213.3
2014-Aug-20 20:34N 55°55' E 016°23'1513.3
2014-Aug-20 19:24N 55°47' E 015°59'1113.1
2014-Aug-20 18:33N 55°41' E 015°42'1313.3
2014-Aug-20 17:33N 55°35' E 015°22'1413.6
2014-Aug-20 16:33N 55°29' E 014°60'1313.3
2014-Aug-20 15:33N 55°23' E 014°39'1312.9
2014-Aug-20 14:33N 55°13' E 014°24'2512.6
2014-Aug-20 12:33N 55°11' E 013°41'1413.5
2014-Aug-20 11:33N 55°11' E 013°17'1413.6
2014-Aug-20 10:33N 55°15' E 012°54'1110.8
2014-Aug-20 09:33N 55°21' E 012°38'1212.0
2014-Aug-20 08:33N 55°32' E 012°42'1111.1
2014-Aug-20 07:33N 55°44' E 012°41'1312.9
2014-Aug-20 06:34N 55°56' E 012°38'1312.6
2014-Aug-20 05:33N 56°08' E 012°29'1312.8
2014-Aug-20 04:33N 56°15' E 012°10'5112.8
2014-Aug-20 00:33N 57°04' E 011°40'1313.1
2014-Aug-19 23:33N 57°16' E 011°32'1312.9
2014-Aug-19 22:33N 57°28' E 011°24'1313.0
2014-Aug-19 21:33N 57°37' E 011°06'1413.7
2014-Aug-19 20:33N 57°46' E 010°46'1212.1
2014-Aug-19 19:33N 57°51' E 010°26'12712.2
2014-Aug-19 09:11N 56°59' E 006°51'14 8.3
2014-Aug-19 07:31N 56°45' E 006°50'66 9.5
2014-Aug-19 00:33N 55°39' E 006°51'9 9.3
2014-Aug-18 23:33N 55°29' E 006°52'9 9.2
2014-Aug-18 22:33N 55°20' E 006°51'9 9.0
2014-Aug-18 21:33N 55°11' E 006°50'8 8.0
2014-Aug-18 20:33N 55°03' E 006°50'9 9.0
2014-Aug-18 19:33N 54°55' E 006°55'10 9.9
2014-Aug-18 18:33N 54°46' E 007°02'1010.3
2014-Aug-18 17:33N 54°36' E 007°10'1010.1
2014-Aug-18 16:33N 54°27' E 007°18'1010.0
2014-Aug-18 15:33N 54°18' E 007°26'10 9.7
2014-Aug-18 14:33N 54°11' E 007°36'10 9.8
2014-Aug-18 13:33N 54°06' E 007°51'10 9.9
2014-Aug-18 12:33N 54°01' E 008°05'10 9.5
2014-Aug-18 11:33N 53°60' E 008°21'1312.8
2014-Aug-18 10:34N 53°54' E 008°41'1212.4
2014-Aug-18 09:34N 53°52' E 009°02'1010.0
2014-Aug-18 08:33N 53°51' E 009°19'1212.4
2014-Aug-18 07:33N 53°41' E 009°30'1010.4
2014-Aug-18 06:34N 53°34' E 009°43'8 8.3
2014-Aug-18 05:33N 53°32' E 009°56'1 0.9
2014-Aug-18 04:31N 53°31' E 009°56'0 0.0
2014-Aug-18 03:31N 53°31' E 009°56'  

Dump ship's entire track history